createdAt,value
2022-08-01T00:00:05.166Z,21.70
2022-08-01T00:03:02.630Z,21.65
2022-08-01T00:06:00.088Z,21.60
2022-08-01T00:08:57.562Z,21.54
2022-08-01T00:11:56.296Z,21.49
2022-08-01T00:14:57.531Z,21.44
2022-08-01T00:17:55.002Z,21.41
2022-08-01T00:20:52.477Z,21.35
2022-08-01T00:23:49.965Z,21.31
2022-08-01T00:26:47.453Z,21.27
2022-08-01T00:30:11.426Z,21.22
2022-08-01T00:33:02.366Z,21.17
2022-08-01T00:35:59.833Z,21.13
2022-08-01T00:38:58.134Z,21.11
2022-08-01T00:41:59.691Z,21.09
2022-08-01T00:44:57.612Z,21.09
2022-08-01T00:47:55.592Z,21.07
2022-08-01T00:50:53.125Z,21.06
2022-08-01T00:53:51.670Z,21.06
2022-08-01T00:56:50.129Z,21.05
2022-08-01T00:59:47.617Z,21.05
2022-08-01T01:02:46.001Z,21.05
2022-08-01T01:05:43.481Z,21.04
2022-08-01T01:08:40.918Z,21.05
2022-08-01T01:11:38.380Z,21.06
2022-08-01T01:14:35.890Z,21.07
2022-08-01T01:17:51.104Z,21.06
2022-08-01T01:20:49.324Z,21.06
2022-08-01T01:23:46.801Z,21.05
2022-08-01T01:26:44.323Z,21.05
2022-08-01T01:30:00.068Z,21.03
2022-08-01T01:32:58.456Z,21.03
2022-08-01T01:35:55.911Z,21.04
2022-08-01T01:38:53.413Z,21.05
2022-08-01T01:41:50.900Z,21.06
2022-08-01T01:44:48.372Z,21.07
2022-08-01T01:47:45.865Z,21.07
2022-08-01T01:50:43.535Z,21.08
2022-08-01T01:53:40.997Z,21.09
2022-08-01T01:56:49.696Z,21.13
2022-08-01T01:59:47.153Z,21.16
2022-08-01T02:02:44.643Z,21.20
2022-08-01T02:05:43.299Z,21.23
2022-08-01T02:08:40.775Z,21.25
2022-08-01T02:11:38.250Z,21.26
2022-08-01T02:14:55.697Z,21.27
2022-08-01T02:17:53.177Z,21.28
2022-08-01T02:20:50.839Z,21.30
2022-08-01T02:23:51.378Z,21.33
2022-08-01T02:26:48.909Z,21.36
2022-08-01T02:29:46.405Z,21.40
2022-08-01T02:32:43.895Z,21.42
2022-08-01T02:36:31.362Z,21.43
2022-08-01T02:38:59.492Z,21.45
2022-08-01T02:41:56.961Z,21.46
2022-08-01T02:44:54.986Z,21.48
2022-08-01T02:47:52.468Z,21.49
2022-08-01T02:50:50.275Z,21.51
2022-08-01T02:53:48.416Z,21.52
2022-08-01T02:56:45.907Z,21.54
2022-08-01T02:59:43.387Z,21.55
2022-08-01T03:02:42.503Z,21.55
2022-08-01T03:05:41.096Z,21.56
2022-08-01T03:08:38.554Z,21.55
2022-08-01T03:11:36.049Z,21.55
2022-08-01T03:14:33.513Z,21.54
2022-08-01T03:17:31.326Z,21.54
2022-08-01T03:20:28.825Z,21.54
2022-08-01T03:23:37.564Z,21.54
2022-08-01T03:26:35.863Z,21.55
2022-08-01T03:29:33.330Z,21.55
2022-08-01T03:32:30.945Z,21.56
2022-08-01T03:35:29.112Z,21.58
2022-08-01T03:38:26.601Z,21.61
2022-08-01T03:41:24.042Z,21.63
2022-08-01T03:44:21.527Z,21.64
2022-08-01T03:47:19.011Z,21.67
2022-08-01T03:50:17.838Z,21.68
2022-08-01T03:53:15.313Z,21.70
2022-08-01T03:56:13.076Z,21.71
2022-08-01T03:59:10.562Z,21.72
2022-08-01T04:02:08.269Z,21.72
2022-08-01T04:05:05.828Z,21.73
2022-08-01T04:08:03.953Z,21.74
2022-08-01T04:11:01.415Z,21.76
2022-08-01T04:13:59.335Z,21.79
2022-08-01T04:16:56.806Z,21.81
2022-08-01T04:19:54.300Z,21.83
2022-08-01T04:22:51.754Z,21.85
2022-08-01T04:25:49.214Z,21.87
2022-08-01T04:28:46.669Z,21.90
2022-08-01T04:31:44.126Z,21.94
2022-08-01T04:34:41.608Z,21.98
2022-08-01T04:37:39.064Z,22.01
2022-08-01T04:40:37.007Z,22.06
2022-08-01T04:43:34.483Z,22.09
2022-08-01T04:46:32.020Z,22.12
2022-08-01T04:49:31.272Z,22.16
2022-08-01T04:52:43.219Z,22.19
2022-08-01T04:55:41.296Z,22.24
2022-08-01T04:58:38.748Z,22.27
2022-08-01T05:01:36.262Z,22.33
2022-08-01T05:04:33.819Z,22.36
2022-08-01T05:07:31.304Z,22.41
2022-08-01T05:10:42.901Z,22.44
2022-08-01T05:13:40.367Z,22.48
2022-08-01T05:16:37.844Z,22.51
2022-08-01T05:19:35.300Z,22.55
2022-08-01T05:22:32.762Z,22.59
2022-08-01T05:25:56.168Z,22.60
2022-08-01T05:28:47.875Z,22.60
2022-08-01T05:31:45.339Z,22.61
2022-08-01T05:34:43.450Z,22.63
2022-08-01T05:37:40.975Z,22.65
2022-08-01T05:40:38.430Z,22.67
2022-08-01T05:43:35.906Z,22.71
2022-08-01T05:46:33.384Z,22.74
2022-08-01T05:49:30.871Z,22.78
2022-08-01T05:52:28.381Z,22.81
2022-08-01T05:55:25.878Z,22.85
2022-08-01T05:58:23.361Z,22.89
2022-08-01T06:01:20.848Z,22.95
2022-08-01T06:04:18.337Z,23.01
2022-08-01T06:07:15.848Z,23.07
2022-08-01T06:10:13.332Z,23.15
2022-08-01T06:13:10.775Z,23.23
2022-08-01T06:16:08.235Z,23.31
2022-08-01T06:19:05.708Z,23.40
2022-08-01T06:22:03.275Z,23.50
2022-08-01T06:25:00.852Z,23.60
2022-08-01T06:27:58.320Z,23.69
2022-08-01T06:30:55.838Z,23.79
2022-08-01T06:33:53.349Z,23.89
2022-08-01T06:36:50.805Z,23.97
2022-08-01T06:39:48.291Z,24.04
2022-08-01T06:42:46.883Z,24.13
2022-08-01T06:45:44.548Z,24.26
2022-08-01T06:48:42.027Z,24.38
2022-08-01T06:51:39.490Z,24.52
2022-08-01T06:54:36.949Z,24.67
2022-08-01T06:57:34.758Z,24.83
2022-08-01T07:00:32.263Z,25.06
2022-08-01T07:03:52.240Z,25.30
2022-08-01T07:06:47.296Z,25.56
2022-08-01T07:09:44.782Z,25.72
2022-08-01T07:12:42.483Z,25.81
2022-08-01T07:15:39.937Z,25.88
2022-08-01T07:18:37.679Z,25.93
2022-08-01T07:21:40.497Z,25.95
2022-08-01T07:24:38.863Z,26.00
2022-08-01T07:27:43.399Z,26.05
2022-08-01T07:30:43.181Z,26.07
2022-08-01T07:33:48.432Z,26.05
2022-08-01T07:36:46.705Z,25.97
2022-08-01T07:39:44.162Z,25.89
2022-08-01T07:42:44.451Z,25.80
2022-08-01T07:45:46.396Z,25.73
2022-08-01T07:48:44.181Z,25.67
2022-08-01T07:51:41.637Z,25.63
2022-08-01T07:54:39.153Z,25.56
2022-08-01T07:57:36.626Z,25.47
2022-08-01T08:00:34.111Z,25.39
2022-08-01T08:03:31.644Z,25.31
2022-08-01T08:06:29.126Z,25.24
2022-08-01T08:09:26.608Z,25.21
2022-08-01T08:12:29.658Z,25.20
2022-08-01T08:15:27.578Z,25.24
2022-08-01T08:18:25.100Z,25.35
2022-08-01T08:21:22.573Z,25.48
2022-08-01T08:24:26.854Z,25.64
2022-08-01T08:27:24.652Z,25.84
2022-08-01T08:30:22.188Z,26.11
2022-08-01T08:33:19.657Z,26.40
2022-08-01T08:36:17.382Z,26.68
2022-08-01T08:39:15.245Z,27.01
2022-08-01T08:42:15.072Z,27.38
2022-08-01T08:45:12.592Z,27.61
2022-08-01T08:48:10.068Z,27.82
2022-08-01T08:51:09.845Z,28.16
2022-08-01T08:54:07.349Z,28.51
2022-08-01T08:57:04.835Z,28.74
2022-08-01T09:00:02.896Z,28.98
2022-08-01T09:03:00.376Z,29.19
2022-08-01T09:05:57.878Z,29.44
2022-08-01T09:08:55.467Z,29.77
2022-08-01T09:11:57.039Z,30.02
2022-08-01T09:14:55.532Z,30.31
2022-08-01T09:17:52.996Z,30.49
2022-08-01T09:20:50.482Z,30.51
2022-08-01T09:23:53.515Z,30.39
2022-08-01T09:26:53.579Z,30.24
2022-08-01T09:30:00.586Z,30.17
2022-08-01T09:33:01.736Z,30.26
2022-08-01T09:36:04.629Z,30.32
2022-08-01T09:39:02.087Z,30.49
2022-08-01T09:41:59.582Z,30.75
2022-08-01T09:44:57.050Z,30.95
2022-08-01T09:47:54.567Z,31.33
2022-08-01T09:50:52.200Z,31.83
2022-08-01T09:53:52.605Z,32.31
2022-08-01T09:56:51.004Z,32.80
2022-08-01T09:59:58.290Z,33.21
2022-08-01T10:02:57.397Z,33.57
2022-08-01T10:06:07.905Z,33.92
2022-08-01T10:09:05.375Z,33.87
2022-08-01T10:12:02.866Z,33.52
2022-08-01T10:15:00.341Z,33.18
2022-08-01T10:17:57.825Z,32.80
2022-08-01T10:20:56.800Z,32.75
2022-08-01T10:23:57.748Z,32.95
2022-08-01T10:27:05.497Z,33.26
2022-08-01T10:30:14.169Z,33.38
2022-08-01T10:33:52.593Z,33.35
2022-08-01T10:36:40.863Z,33.60
2022-08-01T10:39:38.612Z,33.81
2022-08-01T10:42:36.731Z,33.79
2022-08-01T10:45:34.490Z,33.83
2022-08-01T10:48:32.317Z,33.98
2022-08-01T10:51:51.379Z,34.06
2022-08-01T10:54:52.605Z,33.82
2022-08-01T10:57:52.954Z,33.55
2022-08-01T11:00:50.732Z,33.51
2022-08-01T11:03:57.197Z,33.67
2022-08-01T11:06:56.720Z,34.05
2022-08-01T11:09:54.200Z,34.59
2022-08-01T11:12:51.728Z,35.13
2022-08-01T11:16:13.873Z,35.64
2022-08-01T11:19:22.014Z,36.13
2022-08-01T11:22:25.820Z,36.57
2022-08-01T11:26:05.562Z,36.98
2022-08-01T11:28:59.469Z,37.39
2022-08-01T11:32:01.550Z,37.75
2022-08-01T11:34:59.813Z,38.03
2022-08-01T11:37:59.250Z,38.15
2022-08-01T11:40:57.340Z,38.38
2022-08-01T11:43:54.877Z,38.58
2022-08-01T11:46:52.663Z,38.71
2022-08-01T11:49:56.349Z,38.87
2022-08-01T11:52:53.990Z,39.03
2022-08-01T11:55:51.991Z,39.06
2022-08-01T11:58:50.194Z,39.18
2022-08-01T12:01:47.655Z,39.21
2022-08-01T12:04:45.557Z,38.83
2022-08-01T12:07:43.073Z,38.70
2022-08-01T12:10:47.243Z,38.66
2022-08-01T12:13:49.186Z,38.22
2022-08-01T12:16:46.623Z,37.47
2022-08-01T12:19:44.099Z,36.78
2022-08-01T12:22:42.161Z,36.36
2022-08-01T12:25:40.341Z,36.16
2022-08-01T12:28:38.033Z,36.09
2022-08-01T12:31:35.545Z,35.74
2022-08-01T12:34:35.272Z,35.36
2022-08-01T12:37:32.810Z,35.02
2022-08-01T12:40:30.287Z,34.74
2022-08-01T12:43:29.483Z,34.53
2022-08-01T12:46:28.271Z,34.50
2022-08-01T12:49:25.913Z,34.47
2022-08-01T12:52:26.779Z,34.26
2022-08-01T12:55:33.714Z,34.04
2022-08-01T12:58:32.262Z,33.77
2022-08-01T13:01:30.618Z,33.70
2022-08-01T13:04:28.325Z,33.73
2022-08-01T13:07:25.808Z,33.60
2022-08-01T13:10:23.273Z,33.33
2022-08-01T13:13:28.686Z,33.05
2022-08-01T13:16:43.327Z,32.81
2022-08-01T13:19:43.986Z,32.76
2022-08-01T13:22:41.639Z,32.90
2022-08-01T13:25:39.217Z,33.11
2022-08-01T13:28:37.971Z,33.33
2022-08-01T13:31:35.713Z,33.57
2022-08-01T13:34:33.315Z,33.65
2022-08-01T13:37:30.793Z,33.67
2022-08-01T13:40:29.924Z,33.59
2022-08-01T13:43:31.666Z,33.54
2022-08-01T13:46:49.254Z,33.50
2022-08-01T13:49:47.657Z,33.53
2022-08-01T13:52:45.211Z,33.59
2022-08-01T13:55:42.695Z,33.64
2022-08-01T13:58:40.349Z,33.85
2022-08-01T14:01:37.874Z,34.03
2022-08-01T14:04:35.437Z,34.12
2022-08-01T14:07:32.931Z,34.10
2022-08-01T14:10:30.917Z,34.12
2022-08-01T14:13:33.602Z,34.20
2022-08-01T14:16:34.719Z,34.29
2022-08-01T14:19:38.634Z,34.33
2022-08-01T14:22:37.251Z,34.35
2022-08-01T14:26:04.292Z,34.32
2022-08-01T14:28:52.616Z,34.22
2022-08-01T14:31:50.103Z,34.06
2022-08-01T14:34:47.843Z,33.73
2022-08-01T14:37:45.332Z,33.34
2022-08-01T14:40:43.348Z,33.08
2022-08-01T14:43:40.798Z,32.99
2022-08-01T14:46:38.322Z,32.95
2022-08-01T14:49:54.960Z,33.02
2022-08-01T14:52:52.851Z,33.12
2022-08-01T14:55:50.326Z,33.16
2022-08-01T14:58:48.558Z,33.21
2022-08-01T15:01:46.328Z,33.22
2022-08-01T15:04:43.815Z,33.23
2022-08-01T15:07:51.723Z,33.18
2022-08-01T15:10:51.168Z,33.08
2022-08-01T15:14:09.297Z,32.98
2022-08-01T15:17:08.879Z,32.83
2022-08-01T15:20:06.556Z,32.79
2022-08-01T15:23:04.087Z,32.73
2022-08-01T15:26:01.547Z,32.62
2022-08-01T15:28:59.000Z,32.52
2022-08-01T15:31:56.484Z,32.47
2022-08-01T15:34:54.078Z,32.41
2022-08-01T15:37:52.160Z,32.34
2022-08-01T15:40:49.632Z,32.27
2022-08-01T15:43:47.146Z,32.15
2022-08-01T15:46:53.645Z,32.02
2022-08-01T15:49:52.402Z,31.91
2022-08-01T15:52:50.271Z,31.80
2022-08-01T15:55:52.499Z,31.71
2022-08-01T15:58:50.508Z,31.64
2022-08-01T16:01:51.198Z,31.55
2022-08-01T16:04:48.964Z,31.46
2022-08-01T16:07:59.290Z,31.35
2022-08-01T16:10:59.026Z,31.23
2022-08-01T16:13:56.497Z,31.13
2022-08-01T16:16:54.423Z,31.00
2022-08-01T16:20:05.233Z,30.84
2022-08-01T16:23:03.878Z,30.70
2022-08-01T16:26:03.604Z,30.58
2022-08-01T16:29:06.137Z,30.42
2022-08-01T16:32:21.940Z,30.25
2022-08-01T16:35:31.365Z,30.12
2022-08-01T16:38:38.439Z,30.02
2022-08-01T16:41:38.540Z,29.96
2022-08-01T16:44:39.349Z,29.91
2022-08-01T16:47:39.387Z,29.89
2022-08-01T16:50:37.821Z,29.80
2022-08-01T16:53:35.339Z,29.67
2022-08-01T16:56:33.475Z,29.54
2022-08-01T16:59:32.635Z,29.42
2022-08-01T17:02:35.990Z,29.25
2022-08-01T17:05:38.147Z,29.07
2022-08-01T17:08:46.893Z,28.90
2022-08-01T17:11:46.584Z,28.72
2022-08-01T17:14:47.510Z,28.58
2022-08-01T17:17:46.255Z,28.45
2022-08-01T17:20:48.699Z,28.30
2022-08-01T17:23:47.005Z,28.18
2022-08-01T17:26:45.282Z,28.07
2022-08-01T17:29:44.583Z,27.96
2022-08-01T17:32:47.755Z,27.86
2022-08-01T17:35:45.235Z,27.75
2022-08-01T17:38:42.737Z,27.66
2022-08-01T17:41:40.413Z,27.57
2022-08-01T17:44:37.870Z,27.49
2022-08-01T17:47:50.193Z,27.38
2022-08-01T17:50:48.645Z,27.27
2022-08-01T17:53:57.357Z,27.17
2022-08-01T17:56:55.506Z,27.08
2022-08-01T17:59:52.950Z,26.99
2022-08-01T18:02:50.435Z,26.91
2022-08-01T18:05:47.909Z,26.83
2022-08-01T18:08:50.800Z,26.74
2022-08-01T18:11:52.972Z,26.65
2022-08-01T18:14:50.441Z,26.57
2022-08-01T18:17:47.909Z,26.49
2022-08-01T18:20:45.412Z,26.39
2022-08-01T18:23:50.973Z,26.30
2022-08-01T18:26:49.199Z,26.23
2022-08-01T18:29:47.374Z,26.15
2022-08-01T18:32:45.909Z,26.08
2022-08-01T18:35:52.248Z,25.99
2022-08-01T18:38:51.365Z,25.91
2022-08-01T18:41:49.230Z,25.82
2022-08-01T18:44:46.700Z,25.73
2022-08-01T18:47:45.227Z,25.64
2022-08-01T18:50:42.726Z,25.55
2022-08-01T18:53:42.060Z,25.47
2022-08-01T18:56:39.694Z,25.39
2022-08-01T18:59:38.957Z,25.31
2022-08-01T19:02:37.598Z,25.22
2022-08-01T19:05:36.146Z,25.14
2022-08-01T19:08:33.731Z,25.07
2022-08-01T19:11:32.052Z,25.00
2022-08-01T19:14:31.356Z,24.92
2022-08-01T19:17:29.544Z,24.85
2022-08-01T19:20:28.034Z,24.78
2022-08-01T19:23:43.726Z,24.71
2022-08-01T19:26:44.113Z,24.65
2022-08-01T19:29:43.415Z,24.60
2022-08-01T19:32:50.833Z,24.55
2022-08-01T19:35:50.339Z,24.49
2022-08-01T19:38:48.679Z,24.43
2022-08-01T19:41:47.052Z,24.36
2022-08-01T19:44:44.997Z,24.30
2022-08-01T19:47:51.575Z,24.23
2022-08-01T19:50:54.384Z,24.14
2022-08-01T19:53:55.219Z,24.04
2022-08-01T19:56:53.114Z,23.94
2022-08-01T19:59:52.007Z,23.84
2022-08-01T20:02:49.516Z,23.74
2022-08-01T20:05:46.976Z,23.63
2022-08-01T20:08:44.467Z,23.52
2022-08-01T20:11:41.939Z,23.41
2022-08-01T20:14:39.445Z,23.30
2022-08-01T20:17:38.400Z,23.20
2022-08-01T20:20:35.883Z,23.11
2022-08-01T20:23:33.375Z,23.02
2022-08-01T20:26:30.864Z,22.94
2022-08-01T20:29:28.349Z,22.87
2022-08-01T20:32:25.987Z,22.80
2022-08-01T20:35:50.735Z,22.74
2022-08-01T20:38:40.916Z,22.68
2022-08-01T20:41:39.127Z,22.63
2022-08-01T20:44:36.600Z,22.57
2022-08-01T20:47:34.554Z,22.52
2022-08-01T20:50:52.698Z,22.45
2022-08-01T20:53:52.869Z,22.38
2022-08-01T20:56:50.355Z,22.31
2022-08-01T20:59:56.133Z,22.25
2022-08-01T21:02:54.672Z,22.21
2022-08-01T21:05:56.040Z,22.18
2022-08-01T21:08:56.722Z,22.16
2022-08-01T21:11:54.192Z,22.14
2022-08-01T21:14:51.681Z,22.12
2022-08-01T21:17:49.145Z,22.11
2022-08-01T21:20:46.615Z,22.08
2022-08-01T21:23:44.114Z,22.06
2022-08-01T21:26:41.590Z,22.06
2022-08-01T21:29:39.124Z,22.07
2022-08-01T21:32:36.585Z,22.09
2022-08-01T21:35:34.123Z,22.12
2022-08-01T21:38:31.596Z,22.14
2022-08-01T21:41:56.512Z,22.18
2022-08-01T21:44:46.882Z,22.20
2022-08-01T21:47:44.410Z,22.23
2022-08-01T21:50:41.902Z,22.26
2022-08-01T21:53:43.432Z,22.29
2022-08-01T21:56:45.920Z,22.31
2022-08-01T21:59:44.575Z,22.33
2022-08-01T22:02:42.051Z,22.35
2022-08-01T22:05:42.564Z,22.34
2022-08-01T22:08:48.827Z,22.35
2022-08-01T22:12:01.003Z,22.36
2022-08-01T22:14:58.975Z,22.39
2022-08-01T22:17:56.457Z,22.42
2022-08-01T22:20:53.925Z,22.45
2022-08-01T22:23:51.459Z,22.49
2022-08-01T22:26:49.176Z,22.51
2022-08-01T22:29:46.632Z,22.53
2022-08-01T22:32:44.125Z,22.54
2022-08-01T22:35:41.907Z,22.55
2022-08-01T22:38:39.415Z,22.55
2022-08-01T22:42:01.421Z,22.54
2022-08-01T22:44:54.338Z,22.51
2022-08-01T22:47:57.035Z,22.48
2022-08-01T22:50:54.484Z,22.44
2022-08-01T22:53:51.993Z,22.39
2022-08-01T22:56:49.495Z,22.35
2022-08-01T22:59:46.965Z,22.30
2022-08-01T23:02:44.440Z,22.26
2022-08-01T23:05:42.130Z,22.23
2022-08-01T23:08:50.108Z,22.21
2022-08-01T23:11:47.583Z,22.20
2022-08-01T23:14:45.060Z,22.18
2022-08-01T23:17:42.558Z,22.18
2022-08-01T23:20:40.013Z,22.17
2022-08-01T23:23:37.497Z,22.15
2022-08-01T23:26:34.956Z,22.13
2022-08-01T23:29:32.435Z,22.11
2022-08-01T23:32:29.910Z,22.09
2022-08-01T23:35:27.395Z,22.06
2022-08-01T23:38:25.440Z,22.04
2022-08-01T23:41:22.909Z,22.02
2022-08-01T23:44:20.388Z,22.01
2022-08-01T23:47:17.891Z,21.99
2022-08-01T23:50:15.439Z,21.97
2022-08-01T23:53:12.925Z,21.96
2022-08-01T23:56:10.738Z,21.94
2022-08-01T23:59:10.310Z,21.92
